createdAt,value
2018-02-14T00:00:40.201Z,3.90
2018-02-14T00:03:07.686Z,4.20
2018-02-14T00:05:35.939Z,3.67
2018-02-14T00:08:03.428Z,3.63
2018-02-14T00:10:30.895Z,4.50
2018-02-14T00:12:58.486Z,4.10
2018-02-14T00:15:26.770Z,3.33
2018-02-14T00:17:54.274Z,4.20
2018-02-14T00:20:21.753Z,3.80
2018-02-14T00:22:49.250Z,4.50
2018-02-14T00:25:16.763Z,3.70
2018-02-14T00:27:44.231Z,4.03
2018-02-14T00:30:11.724Z,4.17
2018-02-14T00:32:39.963Z,4.37
2018-02-14T00:35:07.468Z,3.53
2018-02-14T00:37:35.707Z,4.17
2018-02-14T00:40:03.191Z,4.97
2018-02-14T00:42:31.432Z,4.10
2018-02-14T00:44:58.898Z,4.53
2018-02-14T00:47:26.387Z,4.03
2018-02-14T00:49:54.623Z,4.27
2018-02-14T00:52:22.109Z,4.47
2018-02-14T00:54:49.596Z,4.70
2018-02-14T00:57:17.078Z,4.13
2018-02-14T00:59:44.545Z,4.23
2018-02-14T01:02:12.016Z,3.97
2018-02-14T01:04:39.498Z,4.27
2018-02-14T01:07:07.761Z,4.93
2018-02-14T01:09:35.994Z,5.23
2018-02-14T01:12:03.527Z,4.60
2018-02-14T01:14:30.988Z,5.00
2018-02-14T01:16:58.447Z,4.70
2018-02-14T01:19:25.934Z,4.40
2018-02-14T01:21:53.407Z,4.50
2018-02-14T01:24:20.898Z,4.70
2018-02-14T01:26:48.378Z,4.87
2018-02-14T01:29:15.865Z,5.43
2018-02-14T01:31:43.346Z,4.53
2018-02-14T01:34:11.598Z,5.30
2018-02-14T01:36:39.101Z,4.67
2018-02-14T01:39:06.583Z,5.63
2018-02-14T01:41:34.087Z,4.80
2018-02-14T01:44:02.318Z,5.30
2018-02-14T01:46:29.824Z,5.30
2018-02-14T01:48:58.054Z,4.93
2018-02-14T01:51:25.550Z,4.90
2018-02-14T01:53:53.788Z,4.97
2018-02-14T01:56:21.286Z,5.17
2018-02-14T01:58:48.793Z,6.07
2018-02-14T02:01:16.254Z,5.37
2018-02-14T02:03:43.744Z,5.07
2018-02-14T02:06:12.004Z,5.33
2018-02-14T02:08:39.507Z,4.73
2018-02-14T02:11:07.002Z,6.43
2018-02-14T02:13:34.508Z,5.50
2018-02-14T02:16:02.007Z,5.97
2018-02-14T02:18:29.511Z,4.80
2018-02-14T02:20:57.746Z,5.17
2018-02-14T02:23:26.016Z,6.10
2018-02-14T02:25:53.499Z,5.47
2018-02-14T02:28:21.003Z,5.20
2018-02-14T02:30:48.490Z,5.97
2018-02-14T02:33:16.018Z,5.73
2018-02-14T02:35:43.509Z,6.07
2018-02-14T02:38:11.008Z,5.33
2018-02-14T02:40:42.281Z,6.00
2018-02-14T02:43:09.770Z,5.77
2018-02-14T02:45:37.263Z,5.23
2018-02-14T02:48:04.744Z,6.30
2018-02-14T02:50:32.246Z,5.83
2018-02-14T02:52:59.721Z,6.30
2018-02-14T02:55:27.967Z,5.87
2018-02-14T02:57:55.624Z,6.30
2018-02-14T03:00:23.130Z,5.63
2018-02-14T03:02:50.619Z,5.97
2018-02-14T03:05:18.128Z,6.10
2018-02-14T03:07:46.372Z,5.77
2018-02-14T03:10:13.850Z,6.00
2018-02-14T03:12:42.094Z,5.43
2018-02-14T03:15:09.588Z,5.97
2018-02-14T03:17:43.804Z,6.17
2018-02-14T03:20:12.041Z,6.30
2018-02-14T03:22:39.530Z,5.77
2018-02-14T03:25:07.759Z,6.47
2018-02-14T03:27:35.241Z,7.17
2018-02-14T03:30:02.727Z,6.23
2018-02-14T03:32:30.217Z,6.00
2018-02-14T03:34:57.690Z,6.33
2018-02-14T03:37:25.166Z,6.40
2018-02-14T03:39:53.406Z,5.80
2018-02-14T03:42:20.879Z,5.67
2018-02-14T03:44:48.352Z,5.77
2018-02-14T03:47:15.842Z,7.47
2018-02-14T03:49:43.315Z,6.00
2018-02-14T03:52:10.798Z,6.53
2018-02-14T03:54:38.329Z,6.63
2018-02-14T03:57:05.808Z,6.40
2018-02-14T03:59:33.284Z,6.50
2018-02-14T04:02:00.771Z,5.37
2018-02-14T04:04:28.247Z,6.27
2018-02-14T04:06:55.705Z,5.70
2018-02-14T04:09:23.197Z,6.03
2018-02-14T04:11:51.447Z,5.37
2018-02-14T04:14:18.939Z,6.43
2018-02-14T04:16:46.406Z,5.77
2018-02-14T04:19:14.659Z,6.00
2018-02-14T04:21:42.137Z,6.13
2018-02-14T04:24:10.405Z,7.73
2018-02-14T04:26:37.855Z,7.13
2018-02-14T04:29:05.336Z,6.03
2018-02-14T04:31:33.589Z,6.67
2018-02-14T04:34:01.077Z,6.73
2018-02-14T04:36:28.578Z,6.57
2018-02-14T04:38:56.072Z,6.40
2018-02-14T04:41:24.311Z,7.03
2018-02-14T04:43:51.782Z,6.73
2018-02-14T04:46:19.239Z,6.70
2018-02-14T04:48:46.722Z,6.60
2018-02-14T04:51:14.945Z,4.83
2018-02-14T04:53:42.444Z,7.43
2018-02-14T04:56:10.678Z,6.30
2018-02-14T04:58:38.151Z,6.83
2018-02-14T05:01:05.638Z,6.53
2018-02-14T05:03:33.878Z,7.10
2018-02-14T05:06:01.354Z,5.83
2018-02-14T05:08:29.618Z,6.93
2018-02-14T05:10:57.883Z,7.10
2018-02-14T05:13:25.361Z,7.57
2018-02-14T05:15:53.639Z,8.13
2018-02-14T05:18:21.875Z,7.00
2018-02-14T05:20:49.350Z,7.33
2018-02-14T05:23:16.838Z,6.73
2018-02-14T05:25:44.310Z,6.70
2018-02-14T05:28:11.802Z,7.50
2018-02-14T05:30:39.277Z,6.47
2018-02-14T05:33:06.765Z,7.63
2018-02-14T05:35:34.247Z,7.73
2018-02-14T05:38:01.729Z,8.47
2018-02-14T05:40:29.236Z,8.37
2018-02-14T05:42:56.732Z,8.07
2018-02-14T05:45:24.209Z,7.20
2018-02-14T05:47:51.689Z,7.90
2018-02-14T05:50:19.942Z,8.13
2018-02-14T05:52:47.438Z,9.17
2018-02-14T05:55:14.912Z,7.40
2018-02-14T05:57:42.409Z,8.70
2018-02-14T06:00:09.888Z,8.40
2018-02-14T06:02:38.414Z,9.30
2018-02-14T06:05:06.897Z,8.73
2018-02-14T06:07:34.377Z,9.43
2018-02-14T06:10:01.875Z,8.80
2018-02-14T06:12:29.394Z,9.60
2018-02-14T06:14:56.911Z,8.03
2018-02-14T06:17:24.595Z,8.10
2018-02-14T06:19:53.134Z,9.30
2018-02-14T06:22:20.619Z,8.93
2018-02-14T06:24:48.099Z,8.23
2018-02-14T06:27:15.588Z,9.73
2018-02-14T06:29:43.851Z,10.43
2018-02-14T06:32:12.132Z,9.93
2018-02-14T06:34:40.599Z,10.43
2018-02-14T06:37:08.083Z,10.53
2018-02-14T06:39:35.565Z,10.67
2018-02-14T06:42:03.090Z,9.30
2018-02-14T06:44:31.351Z,10.77
2018-02-14T06:46:59.583Z,13.30
2018-02-14T06:49:27.053Z,9.87
2018-02-14T06:51:54.520Z,10.03
2018-02-14T06:54:22.018Z,10.83
2018-02-14T06:56:49.486Z,9.73
2018-02-14T06:59:16.991Z,9.87
2018-02-14T07:01:44.462Z,10.07
2018-02-14T07:04:12.698Z,9.90
2018-02-14T07:06:40.189Z,9.77
2018-02-14T07:09:08.426Z,11.10
2018-02-14T07:11:35.911Z,10.27
2018-02-14T07:14:03.607Z,9.90
2018-02-14T07:16:32.508Z,10.00
2018-02-14T07:19:00.028Z,11.13
2018-02-14T07:21:28.295Z,10.83
2018-02-14T07:23:55.768Z,11.07
2018-02-14T07:26:24.033Z,10.03
2018-02-14T07:28:52.315Z,10.00
2018-02-14T07:31:20.556Z,10.40
2018-02-14T07:33:48.038Z,11.53
2018-02-14T07:36:16.275Z,10.10
2018-02-14T07:38:43.764Z,10.00
2018-02-14T07:41:12.976Z,10.03
2018-02-14T07:43:41.229Z,9.23
2018-02-14T07:46:08.698Z,9.10
2018-02-14T07:48:36.962Z,9.90
2018-02-14T07:51:04.445Z,9.33
2018-02-14T07:53:31.931Z,9.63
2018-02-14T07:55:59.391Z,9.77
2018-02-14T07:58:26.888Z,10.83
2018-02-14T08:00:55.126Z,9.87
2018-02-14T08:03:24.476Z,10.63
2018-02-14T08:05:52.711Z,10.97
2018-02-14T08:08:20.203Z,9.73
2018-02-14T08:10:48.459Z,9.97
2018-02-14T08:13:15.969Z,10.07
2018-02-14T08:15:43.452Z,9.33
2018-02-14T08:18:10.925Z,8.80
2018-02-14T08:20:38.414Z,9.37
2018-02-14T08:23:06.648Z,8.33
2018-02-14T08:25:34.137Z,9.03
2018-02-14T08:28:02.394Z,7.83
2018-02-14T08:30:29.887Z,8.93
2018-02-14T08:32:57.354Z,9.30
2018-02-14T08:35:24.839Z,7.93
2018-02-14T08:37:52.312Z,7.63
2018-02-14T08:40:19.813Z,9.27
2018-02-14T08:42:47.291Z,8.70
2018-02-14T08:45:14.766Z,7.90
2018-02-14T08:47:43.741Z,8.60
2018-02-14T08:50:11.244Z,8.70
2018-02-14T08:52:39.488Z,9.23
2018-02-14T08:55:06.974Z,9.10
2018-02-14T08:57:35.223Z,9.53
2018-02-14T09:00:02.702Z,9.77
2018-02-14T09:02:31.784Z,9.53
2018-02-14T09:04:59.267Z,9.10
2018-02-14T09:07:27.513Z,8.87
2018-02-14T09:09:54.988Z,10.20
2018-02-14T09:12:23.271Z,9.67
2018-02-14T09:14:51.592Z,9.50
2018-02-14T09:17:19.549Z,7.33
2018-02-14T09:19:47.038Z,10.47
2018-02-14T09:22:14.527Z,9.90
2018-02-14T09:24:42.785Z,8.30
2018-02-14T09:27:10.264Z,8.43
2018-02-14T09:29:37.734Z,8.47
2018-02-14T09:32:05.214Z,7.80
2018-02-14T09:34:32.697Z,8.90
2018-02-14T09:37:00.206Z,7.97
2018-02-14T09:39:28.407Z,10.17
2018-02-14T09:41:55.862Z,8.20
2018-02-14T09:44:23.348Z,10.00
2018-02-14T09:46:51.701Z,9.67
2018-02-14T09:49:19.186Z,10.23
2018-02-14T09:51:47.435Z,11.00
2018-02-14T09:54:14.938Z,11.67
2018-02-14T09:56:42.487Z,7.83
2018-02-14T09:59:10.771Z,8.13
2018-02-14T10:01:38.237Z,9.73
2018-02-14T10:04:05.719Z,9.53
2018-02-14T10:06:33.220Z,9.13
2018-02-14T10:09:01.464Z,9.57
2018-02-14T10:11:29.126Z,8.03
2018-02-14T10:13:56.597Z,9.50
2018-02-14T10:16:24.097Z,8.57
2018-02-14T10:18:51.562Z,10.30
2018-02-14T10:21:19.049Z,9.30
2018-02-14T10:23:46.528Z,9.70
2018-02-14T10:26:14.033Z,8.03
2018-02-14T10:28:41.535Z,9.87
2018-02-14T10:31:09.022Z,10.43
2018-02-14T10:33:36.502Z,8.80
2018-02-14T10:36:04.002Z,7.93
2018-02-14T10:38:31.492Z,10.50
2018-02-14T10:40:58.971Z,7.20
2018-02-14T10:43:26.455Z,9.33
2018-02-14T10:45:53.931Z,8.60
2018-02-14T10:48:21.468Z,7.33
2018-02-14T10:50:49.000Z,7.00
2018-02-14T10:53:16.593Z,8.83
2018-02-14T10:55:44.100Z,6.10
2018-02-14T10:58:11.738Z,8.40
2018-02-14T11:00:45.566Z,9.07
2018-02-14T11:03:20.463Z,8.20
2018-02-14T11:05:53.649Z,6.80
2018-02-14T11:08:22.026Z,7.43
2018-02-14T11:10:51.041Z,6.67
2018-02-14T11:13:19.365Z,5.87
2018-02-14T11:15:46.867Z,6.33
2018-02-14T11:18:15.117Z,6.90
2018-02-14T11:20:42.626Z,6.50
2018-02-14T11:23:10.099Z,6.50
2018-02-14T11:25:37.641Z,7.53
2018-02-14T11:28:05.111Z,7.03
2018-02-14T11:30:32.617Z,6.63
2018-02-14T11:33:00.861Z,6.30
2018-02-14T11:35:28.336Z,6.90
2018-02-14T11:37:56.570Z,5.03
2018-02-14T11:40:24.043Z,6.00
2018-02-14T11:42:51.537Z,7.50
2018-02-14T11:45:19.784Z,5.43
2018-02-14T11:47:47.273Z,4.20
2018-02-14T11:50:14.768Z,5.30
2018-02-14T11:52:42.236Z,5.33
2018-02-14T11:55:09.711Z,5.57
2018-02-14T11:57:37.182Z,4.23
2018-02-14T12:00:05.481Z,5.70
2018-02-14T12:02:32.986Z,6.17
2018-02-14T12:05:00.473Z,5.73
2018-02-14T12:07:28.728Z,5.70
2018-02-14T12:09:56.969Z,5.13
2018-02-14T12:12:24.443Z,5.10
2018-02-14T12:14:51.914Z,5.50
2018-02-14T12:17:19.935Z,4.33
2018-02-14T12:19:47.408Z,4.27
2018-02-14T12:22:14.892Z,5.93
2018-02-14T12:24:42.367Z,5.73
2018-02-14T12:27:10.662Z,5.17
2018-02-14T12:29:38.174Z,4.33
2018-02-14T12:32:05.636Z,4.70
2018-02-14T12:34:33.123Z,5.20
2018-02-14T12:37:01.370Z,5.03
2018-02-14T12:39:28.888Z,5.10
2018-02-14T12:41:56.362Z,4.33
2018-02-14T12:44:33.464Z,6.00
2018-02-14T12:47:00.938Z,4.67
2018-02-14T12:49:29.186Z,5.10
2018-02-14T12:51:56.653Z,4.63
2018-02-14T12:54:24.145Z,4.73
2018-02-14T12:56:51.625Z,4.80
2018-02-14T12:59:19.162Z,4.60
2018-02-14T13:01:46.631Z,4.83
2018-02-14T13:04:14.125Z,4.87
2018-02-14T13:09:34.867Z,5.30
2018-02-14T13:12:03.117Z,4.63
2018-02-14T13:14:30.687Z,5.90
2018-02-14T13:16:58.168Z,4.43
2018-02-14T13:19:26.414Z,5.63
2018-02-14T13:21:53.901Z,3.87
2018-02-14T13:24:22.178Z,3.70
2018-02-14T13:26:49.660Z,5.37
2018-02-14T13:29:17.156Z,3.73
2018-02-14T13:31:44.635Z,5.27
2018-02-14T13:34:12.863Z,5.33
2018-02-14T13:36:40.357Z,4.50
2018-02-14T13:39:08.608Z,4.67
2018-02-14T13:41:36.337Z,4.90
2018-02-14T13:44:03.850Z,3.83
2018-02-14T13:46:32.123Z,4.50
2018-02-14T13:49:00.352Z,5.40
2018-02-14T13:51:27.828Z,5.47
2018-02-14T13:53:55.341Z,6.00
2018-02-14T13:56:22.835Z,5.50
2018-02-14T13:58:50.296Z,5.63
2018-02-14T14:01:17.809Z,6.37
2018-02-14T14:03:45.284Z,4.83
2018-02-14T14:06:12.773Z,5.50
2018-02-14T14:08:40.244Z,5.90
2018-02-14T14:11:08.490Z,5.57
2018-02-14T14:13:35.998Z,6.10
2018-02-14T14:16:03.490Z,5.80
2018-02-14T14:18:30.958Z,5.10
2018-02-14T14:20:58.431Z,5.20
2018-02-14T14:23:25.893Z,5.47
2018-02-14T14:25:53.426Z,5.03
2018-02-14T14:28:20.888Z,5.00
2018-02-14T14:30:48.347Z,4.20
2018-02-14T14:33:15.880Z,5.70
2018-02-14T14:35:43.362Z,6.03
2018-02-14T14:38:11.656Z,5.73
2018-02-14T14:40:39.882Z,4.47
2018-02-14T14:43:07.362Z,5.47
2018-02-14T14:45:34.872Z,5.10
2018-02-14T14:48:02.353Z,5.97
2018-02-14T14:50:29.861Z,5.07
2018-02-14T14:52:58.186Z,4.87
2018-02-14T14:55:25.682Z,4.93
2018-02-14T14:57:53.169Z,4.67
2018-02-14T15:00:20.711Z,4.57
2018-02-14T15:02:48.949Z,5.97
2018-02-14T15:05:16.470Z,4.37
2018-02-14T15:07:43.965Z,4.43
2018-02-14T15:10:11.452Z,4.87
2018-02-14T15:12:39.683Z,4.27
2018-02-14T15:15:07.174Z,3.53
2018-02-14T15:17:34.659Z,4.77
2018-02-14T15:20:02.158Z,4.70
2018-02-14T15:22:29.655Z,4.50
2018-02-14T15:24:57.920Z,3.43
2018-02-14T15:27:26.158Z,4.03
2018-02-14T15:29:53.697Z,3.20
2018-02-14T15:32:21.225Z,4.33
2018-02-14T15:34:49.472Z,4.57
2018-02-14T15:37:16.959Z,3.83
2018-02-14T15:39:44.901Z,4.60
2018-02-14T15:42:12.391Z,3.27
2018-02-14T15:44:41.747Z,4.40
2018-02-14T15:47:09.216Z,3.63
2018-02-14T15:49:38.489Z,3.73
2018-02-14T15:52:05.986Z,4.43
2018-02-14T15:54:34.287Z,4.43
2018-02-14T15:57:01.784Z,4.50
2018-02-14T15:59:29.276Z,4.50
2018-02-14T16:01:56.800Z,4.70
2018-02-14T16:04:24.266Z,2.67
2018-02-14T16:06:51.734Z,3.87
2018-02-14T16:09:19.986Z,3.17
2018-02-14T16:11:47.504Z,4.10
2018-02-14T16:14:14.991Z,4.33
2018-02-14T16:16:42.474Z,4.50
2018-02-14T16:19:10.807Z,3.87
2018-02-14T16:21:38.315Z,4.47
2018-02-14T16:24:06.583Z,4.43
2018-02-14T16:26:34.819Z,4.47
2018-02-14T16:29:02.345Z,4.63
2018-02-14T16:31:29.803Z,4.10
2018-02-14T16:33:57.296Z,4.87
2018-02-14T16:36:24.755Z,4.10
2018-02-14T16:38:52.330Z,4.07
2018-02-14T16:41:19.840Z,4.23
2018-02-14T16:43:47.322Z,4.10
2018-02-14T16:46:14.810Z,4.40
2018-02-14T16:48:45.208Z,6.77
2018-02-14T16:51:12.695Z,4.50
2018-02-14T16:53:40.980Z,4.63
2018-02-14T16:56:09.973Z,4.43
2018-02-14T16:58:37.461Z,3.83
2018-02-14T17:01:04.951Z,4.17
2018-02-14T17:03:32.465Z,4.70
2018-02-14T17:05:59.964Z,4.67
2018-02-14T17:08:27.440Z,4.63
2018-02-14T17:10:55.015Z,4.87
2018-02-14T17:13:22.511Z,4.73
2018-02-14T17:15:49.996Z,4.73
2018-02-14T17:18:17.497Z,4.53
2018-02-14T17:20:44.978Z,4.80
2018-02-14T17:23:12.466Z,3.73
2018-02-14T17:25:40.737Z,4.93
2018-02-14T17:28:08.237Z,4.77
2018-02-14T17:30:35.732Z,5.33
2018-02-14T17:33:03.226Z,4.30
2018-02-14T17:35:31.489Z,6.37
2018-02-14T17:37:59.726Z,7.87
2018-02-14T17:40:27.211Z,6.07
2018-02-14T17:42:54.685Z,4.87
2018-02-14T17:45:22.176Z,4.97
2018-02-14T17:47:49.991Z,6.20
2018-02-14T17:50:17.469Z,5.10
2018-02-14T17:52:45.710Z,5.63
2018-02-14T17:55:13.206Z,4.87
2018-02-14T17:57:40.659Z,5.00
2018-02-14T18:00:08.192Z,5.17
2018-02-14T18:02:35.666Z,4.77
2018-02-14T18:05:03.919Z,6.20
2018-02-14T18:07:31.386Z,5.00
2018-02-14T18:09:59.668Z,4.73
2018-02-14T18:12:27.928Z,5.43
2018-02-14T18:14:55.407Z,4.83
2018-02-14T18:17:22.890Z,5.53
2018-02-14T18:19:50.378Z,5.47
2018-02-14T18:22:17.869Z,5.47
2018-02-14T18:24:46.226Z,4.80
2018-02-14T18:27:13.707Z,5.27
2018-02-14T18:29:42.002Z,5.50
2018-02-14T18:32:09.471Z,4.83
2018-02-14T18:34:36.962Z,5.57
2018-02-14T18:37:04.455Z,5.23
2018-02-14T18:39:32.182Z,5.43
2018-02-14T18:42:00.110Z,5.93
2018-02-14T18:44:27.584Z,5.50
2018-02-14T18:46:55.089Z,5.10
2018-02-14T18:49:23.426Z,5.07
2018-02-14T18:51:50.942Z,6.50
2018-02-14T18:54:18.445Z,4.60
2018-02-14T18:56:46.349Z,7.03
2018-02-14T18:59:13.840Z,5.20
2018-02-14T19:01:41.482Z,6.63
2018-02-14T19:04:08.989Z,7.13
2018-02-14T19:06:36.498Z,5.93
2018-02-14T19:09:05.580Z,5.80
2018-02-14T19:11:33.312Z,5.63
2018-02-14T19:14:01.453Z,5.30
2018-02-14T19:16:30.747Z,5.43
2018-02-14T19:18:59.351Z,5.90
2018-02-14T19:21:26.892Z,5.23
2018-02-14T19:23:54.411Z,7.13
2018-02-14T19:26:21.915Z,8.70
2018-02-14T19:28:49.415Z,7.17
2018-02-14T19:31:16.962Z,8.07
2018-02-14T19:33:45.498Z,7.07
2018-02-14T19:36:13.042Z,7.40
2018-02-14T19:38:41.615Z,7.13
2018-02-14T19:41:09.128Z,7.43
2018-02-14T19:43:37.409Z,9.40
2018-02-14T19:46:05.719Z,8.93
2018-02-14T19:48:33.255Z,9.30
2018-02-14T19:51:03.472Z,7.80
2018-02-14T19:53:31.528Z,7.90
2018-02-14T19:55:59.221Z,6.90
2018-02-14T19:58:26.750Z,7.37
2018-02-14T20:00:55.967Z,5.43
2018-02-14T20:03:23.616Z,8.37
2018-02-14T20:05:51.907Z,8.17
2018-02-14T20:08:19.385Z,8.33
2018-02-14T20:10:46.891Z,8.27
2018-02-14T20:13:15.233Z,8.03
2018-02-14T20:15:42.872Z,7.13
2018-02-14T20:18:10.370Z,8.30
2018-02-14T20:20:37.903Z,7.47
2018-02-14T20:23:05.383Z,6.17
2018-02-14T20:25:34.716Z,8.73
2018-02-14T20:28:03.163Z,6.43
2018-02-14T20:30:30.790Z,7.27
2018-02-14T20:32:58.302Z,7.60
2018-02-14T20:35:26.559Z,9.43
2018-02-14T20:37:54.890Z,8.83
2018-02-14T20:40:22.410Z,7.30
2018-02-14T20:42:52.677Z,7.33
2018-02-14T20:45:20.172Z,6.90
2018-02-14T20:47:47.680Z,5.40
2018-02-14T20:50:15.144Z,6.33
2018-02-14T20:52:42.709Z,7.03
2018-02-14T20:55:10.181Z,8.83
2018-02-14T20:57:37.667Z,7.07
2018-02-14T21:00:05.924Z,6.60
2018-02-14T21:02:33.402Z,8.57
2018-02-14T21:05:00.892Z,8.37
2018-02-14T21:07:28.380Z,7.87
2018-02-14T21:09:55.879Z,6.67
2018-02-14T21:12:23.359Z,10.17
2018-02-14T21:14:50.841Z,8.53
2018-02-14T21:17:18.540Z,6.03
2018-02-14T21:19:46.799Z,7.13
2018-02-14T21:22:14.277Z,9.03
2018-02-14T21:24:42.546Z,7.57
2018-02-14T21:27:10.836Z,7.93
2018-02-14T21:29:38.328Z,10.23
2018-02-14T21:32:05.795Z,8.10
2018-02-14T21:34:33.279Z,6.83
2018-02-14T21:37:01.516Z,7.90
2018-02-14T21:39:28.998Z,7.27
2018-02-14T21:41:56.521Z,11.13
2018-02-14T21:44:23.982Z,10.23
2018-02-14T21:46:51.503Z,9.20
2018-02-14T21:49:19.754Z,9.87
2018-02-14T21:51:48.003Z,9.50
2018-02-14T21:54:15.499Z,8.87
2018-02-14T21:56:42.970Z,9.23
2018-02-14T21:59:10.441Z,8.13
2018-02-14T22:01:37.929Z,9.00
2018-02-14T22:04:05.402Z,11.27
2018-02-14T22:06:32.888Z,9.07
2018-02-14T22:09:00.365Z,8.57
2018-02-14T22:11:27.867Z,9.30
2018-02-14T22:13:55.349Z,8.63
2018-02-14T22:16:23.694Z,11.83
2018-02-14T22:18:51.202Z,10.23
2018-02-14T22:21:18.689Z,10.20
2018-02-14T22:23:46.146Z,8.07
2018-02-14T22:26:13.640Z,9.90
2018-02-14T22:28:41.873Z,9.40
2018-02-14T22:31:09.375Z,11.67
2018-02-14T22:33:37.645Z,9.73
2018-02-14T22:36:05.902Z,9.47
2018-02-14T22:38:33.382Z,10.13
2018-02-14T22:41:01.622Z,10.47
2018-02-14T22:43:29.110Z,10.13
2018-02-14T22:45:57.378Z,10.97
2018-02-14T22:48:25.639Z,10.67
2018-02-14T22:50:53.129Z,9.93
2018-02-14T22:53:20.654Z,10.20
2018-02-14T22:55:48.158Z,12.03
2018-02-14T22:58:15.656Z,10.20
2018-02-14T23:00:43.148Z,11.93
2018-02-14T23:03:11.394Z,11.53
2018-02-14T23:05:40.295Z,12.90
2018-02-14T23:08:08.550Z,9.53
2018-02-14T23:10:36.033Z,12.87
2018-02-14T23:13:04.302Z,12.23
2018-02-14T23:15:32.597Z,12.43
2018-02-14T23:18:00.078Z,10.53
2018-02-14T23:20:27.557Z,10.13
2018-02-14T23:22:55.032Z,11.17
2018-02-14T23:25:22.535Z,8.17
2018-02-14T23:27:50.076Z,11.73
2018-02-14T23:30:17.553Z,10.07
2018-02-14T23:32:45.043Z,11.67
2018-02-14T23:35:12.523Z,10.80
2018-02-14T23:37:39.997Z,9.10
2018-02-14T23:40:07.499Z,11.57
2018-02-14T23:42:35.739Z,10.33
2018-02-14T23:45:03.211Z,10.60
2018-02-14T23:47:30.674Z,9.67
2018-02-14T23:49:58.171Z,11.10
2018-02-14T23:52:25.672Z,10.80
2018-02-14T23:54:53.145Z,9.13
2018-02-14T23:57:20.635Z,11.43
2018-02-14T23:59:48.135Z,9.87
